KLSF/LSF METAR and TAF weather

Enter ICAO airport designator
Station Type Date Time Source
KLSF METAR 2020/09/18 17:41 UTC NOAA

KLSF 181741Z AUTO 33006KT 10SM BKN036 BKN200 29/20 A2992 RMK AO2 SLP135 VISNO RWY15 CHINO RWY15 $


Station Type Date Time Source
KLSF Decoded METAR 2020/09/18 17:41 UTC NOAA

Fort Benning, GA, United States (KLSF) 32-20N 084-50W 130M
Sep 18, 2020 - 01:41 PM EDT / 2020.09.18 1741 UTC
Wind: from the NNW (330 degrees) at 7 MPH (6 KT):0
Visibility: 10 mile(s):0
Sky conditions: mostly cloudy
Temperature: 84 F (29 C)
Dew Point: 68 F (20 C)
Relative Humidity: 58%
Pressure (altimeter): 29.92 in. Hg (1013 hPa)
ob: KLSF 181741Z AUTO 33006KT 10SM BKN036 BKN200 29/20 A2992 RMK AO2 SLP135 VISNO RWY15 CHINO RWY15
cycle: 17

Station Type Date Time Source
KLSF TAF 2020/09/18 17:03 UTC NOAA

TAF TAF KLSF 181700Z 1817/1923 VRB06KT 9999 FEW030 SCT160 QNH2991INS
TEMPO 1909/1912 1600 BR
BECMG 1911/1912 06006KT 9999 SCT015 QNH3006INS
BECMG 1914/1915 07006KT 9999 FEW017 QNH3009INS TX29/1820Z TN20/1910Z

Example: see airport list